sensor_id;sensor_type;location;lat;lon;timestamp;temperature;humidity
7516;DHT22;3799;47.184;8.538;2022-12-18T00:02:24;0.80;99.90
7516;DHT22;3799;47.184;8.538;2022-12-18T00:04:50;0.50;99.90
7516;DHT22;3799;47.184;8.538;2022-12-18T00:07:16;0.60;99.90
7516;DHT22;3799;47.184;8.538;2022-12-18T00:09:41;0.80;99.90
7516;DHT22;3799;47.184;8.538;2022-12-18T00:12:07;0.70;99.90
7516;DHT22;3799;47.184;8.538;2022-12-18T00:14:32;0.80;99.90
7516;DHT22;3799;47.184;8.538;2022-12-18T00:16:58;0.70;99.90
7516;DHT22;3799;47.184;8.538;2022-12-18T00:19:26;0.80;99.90
7516;DHT22;3799;47.184;8.538;2022-12-18T00:21:55;0.80;99.90
7516;DHT22;3799;47.184;8.538;2022-12-18T00:24:20;0.60;99.90
7516;DHT22;3799;47.184;8.538;2022-12-18T00:26:46;0.70;99.90
7516;DHT22;3799;47.184;8.538;2022-12-18T00:29:12;0.70;99.90
7516;DHT22;3799;47.184;8.538;2022-12-18T00:31:39;0.70;99.90
7516;DHT22;3799;47.184;8.538;2022-12-18T00:34:05;0.60;99.90
7516;DHT22;3799;47.184;8.538;2022-12-18T00:36:32;0.60;99.90
7516;DHT22;3799;47.184;8.538;2022-12-18T00:38:59;0.40;99.90
7516;DHT22;3799;47.184;8.538;2022-12-18T00:41:25;0.50;99.90
7516;DHT22;3799;47.184;8.538;2022-12-18T00:44:10;0.50;99.90
7516;DHT22;3799;47.184;8.538;2022-12-18T00:46:37;0.40;99.90
7516;DHT22;3799;47.184;8.538;2022-12-18T00:49:02;0.50;99.90
7516;DHT22;3799;47.184;8.538;2022-12-18T00:51:28;0.50;99.90
7516;DHT22;3799;47.184;8.538;2022-12-18T00:53:53;0.50;99.90
7516;DHT22;3799;47.184;8.538;2022-12-18T00:56:19;0.30;99.90
7516;DHT22;3799;47.184;8.538;2022-12-18T00:58:48;0.60;99.90
7516;DHT22;3799;47.184;8.538;2022-12-18T01:01:13;0.40;99.90
7516;DHT22;3799;47.184;8.538;2022-12-18T01:03:39;0.70;99.90
7516;DHT22;3799;47.184;8.538;2022-12-18T01:06:09;0.70;99.90
7516;DHT22;3799;47.184;8.538;2022-12-18T01:08:35;0.60;99.90
7516;DHT22;3799;47.184;8.538;2022-12-18T01:11:06;0.70;99.90
7516;DHT22;3799;47.184;8.538;2022-12-18T01:13:31;0.80;99.90
7516;DHT22;3799;47.184;8.538;2022-12-18T01:15:57;0.70;99.90
7516;DHT22;3799;47.184;8.538;2022-12-18T01:18:25;0.80;99.90
7516;DHT22;3799;47.184;8.538;2022-12-18T01:20:51;0.80;99.90
7516;DHT22;3799;47.184;8.538;2022-12-18T01:23:16;0.80;99.90
7516;DHT22;3799;47.184;8.538;2022-12-18T01:25:42;0.80;99.90
7516;DHT22;3799;47.184;8.538;2022-12-18T01:28:07;0.50;99.90
7516;DHT22;3799;47.184;8.538;2022-12-18T01:30:33;0.70;99.90
7516;DHT22;3799;47.184;8.538;2022-12-18T01:32:59;0.60;99.90
7516;DHT22;3799;47.184;8.538;2022-12-18T01:35:24;0.40;99.90
7516;DHT22;3799;47.184;8.538;2022-12-18T01:37:53;0.70;99.90
7516;DHT22;3799;47.184;8.538;2022-12-18T01:40:19;0.60;99.90
7516;DHT22;3799;47.184;8.538;2022-12-18T01:42:44;0.60;99.90
7516;DHT22;3799;47.184;8.538;2022-12-18T01:47:56;0.50;99.90
7516;DHT22;3799;47.184;8.538;2022-12-18T01:50:25;0.60;99.90
7516;DHT22;3799;47.184;8.538;2022-12-18T01:52:53;0.40;99.90
7516;DHT22;3799;47.184;8.538;2022-12-18T01:55:20;0.60;99.90
7516;DHT22;3799;47.184;8.538;2022-12-18T01:57:46;0.60;99.90
7516;DHT22;3799;47.184;8.538;2022-12-18T02:00:17;0.60;99.90
7516;DHT22;3799;47.184;8.538;2022-12-18T02:02:44;0.40;99.90
7516;DHT22;3799;47.184;8.538;2022-12-18T02:05:10;0.60;99.90
7516;DHT22;3799;47.184;8.538;2022-12-18T02:10:07;0.50;99.90
7516;DHT22;3799;47.184;8.538;2022-12-18T02:12:42;0.60;99.90
7516;DHT22;3799;47.184;8.538;2022-12-18T02:15:13;0.50;99.90
7516;DHT22;3799;47.184;8.538;2022-12-18T02:17:46;0.60;99.90
7516;DHT22;3799;47.184;8.538;2022-12-18T02:20:17;0.70;99.90
7516;DHT22;3799;47.184;8.538;2022-12-18T02:27:48;0.80;99.90
7516;DHT22;3799;47.184;8.538;2022-12-18T02:30:14;0.60;99.90
7516;DHT22;3799;47.184;8.538;2022-12-18T02:32:42;0.40;99.90
7516;DHT22;3799;47.184;8.538;2022-12-18T02:35:13;0.40;99.90
7516;DHT22;3799;47.184;8.538;2022-12-18T02:37:39;0.70;99.90
7516;DHT22;3799;47.184;8.538;2022-12-18T02:40:05;0.70;99.90
7516;DHT22;3799;47.184;8.538;2022-12-18T02:42:31;0.80;99.90
7516;DHT22;3799;47.184;8.538;2022-12-18T02:44:57;0.60;99.90
7516;DHT22;3799;47.184;8.538;2022-12-18T02:47:24;0.60;99.90
7516;DHT22;3799;47.184;8.538;2022-12-18T02:52:34;0.70;99.90
7516;DHT22;3799;47.184;8.538;2022-12-18T02:57:49;0.40;99.90
7516;DHT22;3799;47.184;8.538;2022-12-18T03:00:19;0.30;99.90
7516;DHT22;3799;47.184;8.538;2022-12-18T03:05:22;0.30;99.90
7516;DHT22;3799;47.184;8.538;2022-12-18T03:07:59;0.50;99.90
7516;DHT22;3799;47.184;8.538;2022-12-18T03:10:28;0.60;99.90
7516;DHT22;3799;47.184;8.538;2022-12-18T03:13:06;0.50;99.90
7516;DHT22;3799;47.184;8.538;2022-12-18T03:15:51;0.40;99.90
7516;DHT22;3799;47.184;8.538;2022-12-18T03:18:23;0.50;99.90
7516;DHT22;3799;47.184;8.538;2022-12-18T03:20:50;0.50;99.90
7516;DHT22;3799;47.184;8.538;2022-12-18T03:23:17;0.40;99.90
7516;DHT22;3799;47.184;8.538;2022-12-18T03:25:44;0.40;99.90
7516;DHT22;3799;47.184;8.538;2022-12-18T03:28:12;0.50;99.90
7516;DHT22;3799;47.184;8.538;2022-12-18T03:30:38;0.40;99.90
7516;DHT22;3799;47.184;8.538;2022-12-18T03:33:10;0.60;99.90
7516;DHT22;3799;47.184;8.538;2022-12-18T03:35:40;0.40;99.90
7516;DHT22;3799;47.184;8.538;2022-12-18T03:38:06;0.60;99.90
7516;DHT22;3799;47.184;8.538;2022-12-18T03:40:53;0.30;99.90
7516;DHT22;3799;47.184;8.538;2022-12-18T03:43:35;0.40;99.90
7516;DHT22;3799;47.184;8.538;2022-12-18T03:46:03;0.40;99.90
7516;DHT22;3799;47.184;8.538;2022-12-18T03:48:47;0.50;99.90
7516;DHT22;3799;47.184;8.538;2022-12-18T03:51:18;0.50;99.90
7516;DHT22;3799;47.184;8.538;2022-12-18T03:54:21;0.30;99.90
7516;DHT22;3799;47.184;8.538;2022-12-18T03:56:40;0.40;99.90
7516;DHT22;3799;47.184;8.538;2022-12-18T03:59:07;0.50;99.90
7516;DHT22;3799;47.184;8.538;2022-12-18T04:01:38;0.40;99.90
7516;DHT22;3799;47.184;8.538;2022-12-18T04:04:05;0.40;99.90
7516;DHT22;3799;47.184;8.538;2022-12-18T04:06:31;0.10;99.90
7516;DHT22;3799;47.184;8.538;2022-12-18T04:08:59;0.50;99.90
7516;DHT22;3799;47.184;8.538;2022-12-18T04:11:25;0.50;99.90
7516;DHT22;3799;47.184;8.538;2022-12-18T04:13:53;0.40;99.90
7516;DHT22;3799;47.184;8.538;2022-12-18T04:16:20;0.20;99.90
7516;DHT22;3799;47.184;8.538;2022-12-18T04:18:45;0.40;99.90
7516;DHT22;3799;47.184;8.538;2022-12-18T04:21:11;0.50;99.90
7516;DHT22;3799;47.184;8.538;2022-12-18T04:23:36;0.40;99.90
7516;DHT22;3799;47.184;8.538;2022-12-18T04:26:02;0.60;99.90
7516;DHT22;3799;47.184;8.538;2022-12-18T04:28:28;0.50;99.90
7516;DHT22;3799;47.184;8.538;2022-12-18T04:30:53;0.80;99.90
7516;DHT22;3799;47.184;8.538;2022-12-18T04:33:19;0.60;99.90
7516;DHT22;3799;47.184;8.538;2022-12-18T04:35:45;0.40;99.90
7516;DHT22;3799;47.184;8.538;2022-12-18T04:38:11;0.60;99.90
7516;DHT22;3799;47.184;8.538;2022-12-18T04:40:36;0.40;99.90
7516;DHT22;3799;47.184;8.538;2022-12-18T04:43:03;0.60;99.90
7516;DHT22;3799;47.184;8.538;2022-12-18T04:45:29;0.50;99.90
7516;DHT22;3799;47.184;8.538;2022-12-18T04:47:56;0.60;99.90
7516;DHT22;3799;47.184;8.538;2022-12-18T04:50:24;0.60;99.90
7516;DHT22;3799;47.184;8.538;2022-12-18T04:52:50;0.70;99.90
7516;DHT22;3799;47.184;8.538;2022-12-18T04:55:15;0.40;99.90
7516;DHT22;3799;47.184;8.538;2022-12-18T04:57:41;0.60;99.90
7516;DHT22;3799;47.184;8.538;2022-12-18T05:00:07;0.40;99.90
7516;DHT22;3799;47.184;8.538;2022-12-18T05:02:33;0.40;99.90
7516;DHT22;3799;47.184;8.538;2022-12-18T05:04:58;0.20;99.90
7516;DHT22;3799;47.184;8.538;2022-12-18T05:07:24;0.50;99.90
7516;DHT22;3799;47.184;8.538;2022-12-18T05:09:49;0.30;99.90
7516;DHT22;3799;47.184;8.538;2022-12-18T05:12:15;0.40;99.90
7516;DHT22;3799;47.184;8.538;2022-12-18T05:14:40;0.10;99.90
7516;DHT22;3799;47.184;8.538;2022-12-18T05:17:09;0.20;99.90
7516;DHT22;3799;47.184;8.538;2022-12-18T05:19:34;0.40;99.90
7516;DHT22;3799;47.184;8.538;2022-12-18T05:22:03;0.50;99.90
7516;DHT22;3799;47.184;8.538;2022-12-18T05:24:29;0.50;99.90
7516;DHT22;3799;47.184;8.538;2022-12-18T05:26:54;0.50;99.90
7516;DHT22;3799;47.184;8.538;2022-12-18T05:29:20;0.60;99.90
7516;DHT22;3799;47.184;8.538;2022-12-18T05:31:45;0.50;99.90
7516;DHT22;3799;47.184;8.538;2022-12-18T05:34:13;0.50;99.90
7516;DHT22;3799;47.184;8.538;2022-12-18T05:36:39;0.50;99.90
7516;DHT22;3799;47.184;8.538;2022-12-18T05:39:04;0.70;99.90
7516;DHT22;3799;47.184;8.538;2022-12-18T05:41:30;0.60;99.90
7516;DHT22;3799;47.184;8.538;2022-12-18T05:43:56;0.60;99.90
7516;DHT22;3799;47.184;8.538;2022-12-18T05:46:21;0.70;99.90
7516;DHT22;3799;47.184;8.538;2022-12-18T05:48:47;0.80;99.90
7516;DHT22;3799;47.184;8.538;2022-12-18T05:51:14;0.80;99.90
7516;DHT22;3799;47.184;8.538;2022-12-18T05:53:41;0.80;99.90
7516;DHT22;3799;47.184;8.538;2022-12-18T05:56:10;0.50;99.90
7516;DHT22;3799;47.184;8.538;2022-12-18T05:58:36;1.00;99.90
7516;DHT22;3799;47.184;8.538;2022-12-18T06:01:06;1.00;99.90
7516;DHT22;3799;47.184;8.538;2022-12-18T06:03:32;0.80;99.90
7516;DHT22;3799;47.184;8.538;2022-12-18T06:05:57;0.90;99.90
7516;DHT22;3799;47.184;8.538;2022-12-18T06:08:23;0.80;99.90
7516;DHT22;3799;47.184;8.538;2022-12-18T06:10:51;0.70;99.90
7516;DHT22;3799;47.184;8.538;2022-12-18T06:13:18;0.80;99.90
7516;DHT22;3799;47.184;8.538;2022-12-18T06:15:44;0.70;99.90
7516;DHT22;3799;47.184;8.538;2022-12-18T06:18:09;0.80;99.90
7516;DHT22;3799;47.184;8.538;2022-12-18T06:20:35;0.80;99.90
7516;DHT22;3799;47.184;8.538;2022-12-18T06:23:02;0.70;99.90
7516;DHT22;3799;47.184;8.538;2022-12-18T06:25:28;0.80;99.90
7516;DHT22;3799;47.184;8.538;2022-12-18T06:27:54;0.50;99.90
7516;DHT22;3799;47.184;8.538;2022-12-18T06:30:19;0.80;99.90
7516;DHT22;3799;47.184;8.538;2022-12-18T06:32:45;0.50;99.90
7516;DHT22;3799;47.184;8.538;2022-12-18T06:35:11;0.60;99.90
7516;DHT22;3799;47.184;8.538;2022-12-18T06:37:36;0.60;99.90
7516;DHT22;3799;47.184;8.538;2022-12-18T06:40:02;0.40;99.90
7516;DHT22;3799;47.184;8.538;2022-12-18T06:42:28;0.60;99.90
7516;DHT22;3799;47.184;8.538;2022-12-18T06:44:53;0.50;99.90
7516;DHT22;3799;47.184;8.538;2022-12-18T06:47:19;0.70;99.90
7516;DHT22;3799;47.184;8.538;2022-12-18T06:49:45;0.60;99.90
7516;DHT22;3799;47.184;8.538;2022-12-18T06:52:10;0.70;99.90
7516;DHT22;3799;47.184;8.538;2022-12-18T06:54:36;0.50;99.90
7516;DHT22;3799;47.184;8.538;2022-12-18T06:57:01;0.40;99.90
7516;DHT22;3799;47.184;8.538;2022-12-18T06:59:27;0.60;99.90
7516;DHT22;3799;47.184;8.538;2022-12-18T07:01:53;0.40;99.90
7516;DHT22;3799;47.184;8.538;2022-12-18T07:04:18;0.30;99.90
7516;DHT22;3799;47.184;8.538;2022-12-18T07:06:44;0.50;99.90
7516;DHT22;3799;47.184;8.538;2022-12-18T07:09:09;0.50;99.90
7516;DHT22;3799;47.184;8.538;2022-12-18T07:11:35;0.30;99.90
7516;DHT22;3799;47.184;8.538;2022-12-18T07:14:01;0.60;99.90
7516;DHT22;3799;47.184;8.538;2022-12-18T07:16:26;0.50;99.90
7516;DHT22;3799;47.184;8.538;2022-12-18T07:18:54;0.70;99.90
7516;DHT22;3799;47.184;8.538;2022-12-18T07:21:20;0.70;99.90
7516;DHT22;3799;47.184;8.538;2022-12-18T07:23:45;0.90;99.90
7516;DHT22;3799;47.184;8.538;2022-12-18T07:26:13;0.60;99.90
7516;DHT22;3799;47.184;8.538;2022-12-18T07:28:40;0.60;99.90
7516;DHT22;3799;47.184;8.538;2022-12-18T07:31:06;0.50;99.90
7516;DHT22;3799;47.184;8.538;2022-12-18T07:33:33;0.80;99.90
7516;DHT22;3799;47.184;8.538;2022-12-18T07:35:59;0.70;99.90
7516;DHT22;3799;47.184;8.538;2022-12-18T07:38:25;0.90;99.90
7516;DHT22;3799;47.184;8.538;2022-12-18T07:40:50;0.90;99.90
7516;DHT22;3799;47.184;8.538;2022-12-18T07:43:16;0.50;99.90
7516;DHT22;3799;47.184;8.538;2022-12-18T07:45:44;0.60;99.90
7516;DHT22;3799;47.184;8.538;2022-12-18T07:48:22;0.80;99.90
7516;DHT22;3799;47.184;8.538;2022-12-18T07:53:41;0.80;99.90
7516;DHT22;3799;47.184;8.538;2022-12-18T07:56:08;0.70;99.90
7516;DHT22;3799;47.184;8.538;2022-12-18T07:58:34;1.00;99.90
7516;DHT22;3799;47.184;8.538;2022-12-18T08:01:04;1.10;99.90
7516;DHT22;3799;47.184;8.538;2022-12-18T08:03:30;0.90;99.90
7516;DHT22;3799;47.184;8.538;2022-12-18T08:06:02;0.80;99.90
7516;DHT22;3799;47.184;8.538;2022-12-18T08:08:28;0.80;99.90
7516;DHT22;3799;47.184;8.538;2022-12-18T08:10:54;0.60;99.90
7516;DHT22;3799;47.184;8.538;2022-12-18T08:13:20;0.80;99.90
7516;DHT22;3799;47.184;8.538;2022-12-18T08:15:46;0.80;99.90
7516;DHT22;3799;47.184;8.538;2022-12-18T08:18:11;0.80;99.90
7516;DHT22;3799;47.184;8.538;2022-12-18T08:20:37;0.80;99.90
7516;DHT22;3799;47.184;8.538;2022-12-18T08:23:02;0.80;99.90
7516;DHT22;3799;47.184;8.538;2022-12-18T08:25:28;0.80;99.90
7516;DHT22;3799;47.184;8.538;2022-12-18T08:27:54;0.90;99.90
7516;DHT22;3799;47.184;8.538;2022-12-18T08:30:21;0.90;99.90
7516;DHT22;3799;47.184;8.538;2022-12-18T08:32:50;1.10;99.90
7516;DHT22;3799;47.184;8.538;2022-12-18T08:35:16;0.90;99.90
7516;DHT22;3799;47.184;8.538;2022-12-18T08:37:41;1.00;99.90
7516;DHT22;3799;47.184;8.538;2022-12-18T08:40:07;1.10;99.90
7516;DHT22;3799;47.184;8.538;2022-12-18T08:42:33;0.90;99.90
7516;DHT22;3799;47.184;8.538;2022-12-18T08:45:17;1.10;99.90
7516;DHT22;3799;47.184;8.538;2022-12-18T08:47:43;1.00;99.90
7516;DHT22;3799;47.184;8.538;2022-12-18T08:50:09;1.10;99.90
7516;DHT22;3799;47.184;8.538;2022-12-18T08:52:34;1.40;99.90
7516;DHT22;3799;47.184;8.538;2022-12-18T08:55:00;1.30;99.90
7516;DHT22;3799;47.184;8.538;2022-12-18T08:57:25;1.30;99.90
7516;DHT22;3799;47.184;8.538;2022-12-18T08:59:51;1.40;99.90
7516;DHT22;3799;47.184;8.538;2022-12-18T09:02:17;1.40;99.90
7516;DHT22;3799;47.184;8.538;2022-12-18T09:04:42;1.30;99.90
7516;DHT22;3799;47.184;8.538;2022-12-18T09:07:08;1.30;99.90
7516;DHT22;3799;47.184;8.538;2022-12-18T09:09:34;1.30;99.90
7516;DHT22;3799;47.184;8.538;2022-12-18T09:12:00;1.50;99.90
7516;DHT22;3799;47.184;8.538;2022-12-18T09:14:26;1.50;99.90
7516;DHT22;3799;47.184;8.538;2022-12-18T09:16:51;1.50;99.90
7516;DHT22;3799;47.184;8.538;2022-12-18T09:19:17;1.40;99.90
7516;DHT22;3799;47.184;8.538;2022-12-18T09:21:43;1.70;99.90
7516;DHT22;3799;47.184;8.538;2022-12-18T09:24:10;1.50;99.90
7516;DHT22;3799;47.184;8.538;2022-12-18T09:26:37;1.70;99.90
7516;DHT22;3799;47.184;8.538;2022-12-18T09:29:02;2.00;99.90
7516;DHT22;3799;47.184;8.538;2022-12-18T09:31:28;2.20;99.90
7516;DHT22;3799;47.184;8.538;2022-12-18T09:33:56;2.40;99.90
7516;DHT22;3799;47.184;8.538;2022-12-18T09:36:22;2.40;99.90
7516;DHT22;3799;47.184;8.538;2022-12-18T09:38:47;2.50;99.90
7516;DHT22;3799;47.184;8.538;2022-12-18T09:43:58;2.80;99.90
7516;DHT22;3799;47.184;8.538;2022-12-18T09:46:26;2.80;99.90
7516;DHT22;3799;47.184;8.538;2022-12-18T09:48:54;2.80;99.90
7516;DHT22;3799;47.184;8.538;2022-12-18T09:51:26;2.90;99.90
7516;DHT22;3799;47.184;8.538;2022-12-18T09:53:55;3.00;99.90
7516;DHT22;3799;47.184;8.538;2022-12-18T09:56:21;3.30;99.90
7516;DHT22;3799;47.184;8.538;2022-12-18T09:58:53;3.10;99.90
7516;DHT22;3799;47.184;8.538;2022-12-18T10:01:21;3.00;99.90
7516;DHT22;3799;47.184;8.538;2022-12-18T10:03:48;3.10;99.90
7516;DHT22;3799;47.184;8.538;2022-12-18T10:06:15;3.10;99.90
7516;DHT22;3799;47.184;8.538;2022-12-18T10:13:42;3.50;99.90
7516;DHT22;3799;47.184;8.538;2022-12-18T10:16:16;3.30;99.90
7516;DHT22;3799;47.184;8.538;2022-12-18T10:18:58;3.30;99.90
7516;DHT22;3799;47.184;8.538;2022-12-18T10:21:38;3.30;99.90
7516;DHT22;3799;47.184;8.538;2022-12-18T10:26:31;3.50;99.90
7516;DHT22;3799;47.184;8.538;2022-12-18T10:28:56;3.50;99.90
7516;DHT22;3799;47.184;8.538;2022-12-18T10:31:23;3.70;99.90
7516;DHT22;3799;47.184;8.538;2022-12-18T10:33:49;3.60;99.90
7516;DHT22;3799;47.184;8.538;2022-12-18T10:36:14;3.40;99.90
7516;DHT22;3799;47.184;8.538;2022-12-18T10:38:40;3.60;99.90
7516;DHT22;3799;47.184;8.538;2022-12-18T10:41:08;3.60;99.90
7516;DHT22;3799;47.184;8.538;2022-12-18T10:46:35;3.90;99.90
7516;DHT22;3799;47.184;8.538;2022-12-18T10:49:01;3.80;99.90
7516;DHT22;3799;47.184;8.538;2022-12-18T10:51:27;3.30;99.90
7516;DHT22;3799;47.184;8.538;2022-12-18T10:53:57;3.60;99.90
7516;DHT22;3799;47.184;8.538;2022-12-18T10:56:25;3.60;99.90
7516;DHT22;3799;47.184;8.538;2022-12-18T10:59:00;3.30;99.90
7516;DHT22;3799;47.184;8.538;2022-12-18T11:01:26;3.50;99.90
7516;DHT22;3799;47.184;8.538;2022-12-18T11:06:24;3.70;99.90
7516;DHT22;3799;47.184;8.538;2022-12-18T11:09:03;3.30;99.90
7516;DHT22;3799;47.184;8.538;2022-12-18T11:11:29;3.30;99.90
7516;DHT22;3799;47.184;8.538;2022-12-18T11:13:59;3.30;99.90
7516;DHT22;3799;47.184;8.538;2022-12-18T11:16:26;3.40;99.90
7516;DHT22;3799;47.184;8.538;2022-12-18T11:18:52;3.10;99.90
7516;DHT22;3799;47.184;8.538;2022-12-18T11:21:18;3.30;99.90
7516;DHT22;3799;47.184;8.538;2022-12-18T11:23:53;3.20;99.90
7516;DHT22;3799;47.184;8.538;2022-12-18T11:26:19;3.40;99.90
7516;DHT22;3799;47.184;8.538;2022-12-18T11:28:52;3.50;99.90
7516;DHT22;3799;47.184;8.538;2022-12-18T11:31:20;3.30;99.90
7516;DHT22;3799;47.184;8.538;2022-12-18T11:33:47;3.70;99.90
7516;DHT22;3799;47.184;8.538;2022-12-18T11:36:15;3.60;99.90
7516;DHT22;3799;47.184;8.538;2022-12-18T11:38:42;3.50;99.90
7516;DHT22;3799;47.184;8.538;2022-12-18T11:41:26;3.50;99.90
7516;DHT22;3799;47.184;8.538;2022-12-18T11:44:29;3.50;99.90
7516;DHT22;3799;47.184;8.538;2022-12-18T11:47:08;3.50;99.90
7516;DHT22;3799;47.184;8.538;2022-12-18T11:49:35;3.50;99.90
7516;DHT22;3799;47.184;8.538;2022-12-18T11:54:45;3.40;99.90
7516;DHT22;3799;47.184;8.538;2022-12-18T11:59:57;3.50;99.90
7516;DHT22;3799;47.184;8.538;2022-12-18T12:07:54;3.40;99.90
7516;DHT22;3799;47.184;8.538;2022-12-18T12:10:33;3.50;99.90
7516;DHT22;3799;47.184;8.538;2022-12-18T12:20:47;3.00;99.90
7516;DHT22;3799;47.184;8.538;2022-12-18T12:23:18;2.90;99.90
7516;DHT22;3799;47.184;8.538;2022-12-18T12:25:48;2.90;99.90
7516;DHT22;3799;47.184;8.538;2022-12-18T12:28:19;3.10;99.90
7516;DHT22;3799;47.184;8.538;2022-12-18T12:38:43;3.10;99.90
7516;DHT22;3799;47.184;8.538;2022-12-18T12:41:14;3.20;99.90
7516;DHT22;3799;47.184;8.538;2022-12-18T12:44:02;3.30;99.90
7516;DHT22;3799;47.184;8.538;2022-12-18T12:46:30;3.20;99.90
7516;DHT22;3799;47.184;8.538;2022-12-18T12:48:56;3.30;99.90
7516;DHT22;3799;47.184;8.538;2022-12-18T12:53:52;3.30;99.90
7516;DHT22;3799;47.184;8.538;2022-12-18T12:56:19;3.30;99.90
7516;DHT22;3799;47.184;8.538;2022-12-18T13:01:25;3.40;99.90
7516;DHT22;3799;47.184;8.538;2022-12-18T13:09:00;3.20;99.90
7516;DHT22;3799;47.184;8.538;2022-12-18T13:17:17;3.30;99.90
7516;DHT22;3799;47.184;8.538;2022-12-18T13:19:51;3.30;99.90
7516;DHT22;3799;47.184;8.538;2022-12-18T13:22:28;3.30;99.90
7516;DHT22;3799;47.184;8.538;2022-12-18T13:24:55;3.20;99.90
7516;DHT22;3799;47.184;8.538;2022-12-18T13:30:34;3.40;99.90
7516;DHT22;3799;47.184;8.538;2022-12-18T13:33:12;3.30;99.90
7516;DHT22;3799;47.184;8.538;2022-12-18T13:35:37;3.30;99.90
7516;DHT22;3799;47.184;8.538;2022-12-18T13:38:16;3.30;99.90
7516;DHT22;3799;47.184;8.538;2022-12-18T13:48:32;3.00;99.90
7516;DHT22;3799;47.184;8.538;2022-12-18T13:50:59;3.10;99.90
7516;DHT22;3799;47.184;8.538;2022-12-18T13:53:27;3.00;99.90
7516;DHT22;3799;47.184;8.538;2022-12-18T13:55:54;3.00;99.90
7516;DHT22;3799;47.184;8.538;2022-12-18T13:58:19;3.10;99.90
7516;DHT22;3799;47.184;8.538;2022-12-18T14:00:45;3.00;99.90
7516;DHT22;3799;47.184;8.538;2022-12-18T14:03:18;2.90;99.90
7516;DHT22;3799;47.184;8.538;2022-12-18T14:05:44;2.90;99.90
7516;DHT22;3799;47.184;8.538;2022-12-18T14:08:14;2.80;99.90
7516;DHT22;3799;47.184;8.538;2022-12-18T14:10:41;2.80;99.90
7516;DHT22;3799;47.184;8.538;2022-12-18T14:13:08;2.90;99.90
7516;DHT22;3799;47.184;8.538;2022-12-18T14:15:35;2.60;99.90
7516;DHT22;3799;47.184;8.538;2022-12-18T14:20:43;3.10;99.90
7516;DHT22;3799;47.184;8.538;2022-12-18T14:25:55;3.10;99.90
7516;DHT22;3799;47.184;8.538;2022-12-18T14:28:20;2.60;99.90
7516;DHT22;3799;47.184;8.538;2022-12-18T14:30:47;2.60;99.90
7516;DHT22;3799;47.184;8.538;2022-12-18T14:35:40;2.60;99.90
7516;DHT22;3799;47.184;8.538;2022-12-18T14:38:10;2.60;99.90
7516;DHT22;3799;47.184;8.538;2022-12-18T14:43:10;2.50;99.90
7516;DHT22;3799;47.184;8.538;2022-12-18T14:45:37;2.50;99.90
7516;DHT22;3799;47.184;8.538;2022-12-18T14:48:06;2.50;99.90
7516;DHT22;3799;47.184;8.538;2022-12-18T14:50:32;2.60;99.90
7516;DHT22;3799;47.184;8.538;2022-12-18T14:52:58;2.30;99.90
7516;DHT22;3799;47.184;8.538;2022-12-18T14:55:24;2.40;99.90
7516;DHT22;3799;47.184;8.538;2022-12-18T14:57:50;2.40;99.90
7516;DHT22;3799;47.184;8.538;2022-12-18T15:00:18;2.30;99.90
7516;DHT22;3799;47.184;8.538;2022-12-18T15:02:48;2.30;99.90
7516;DHT22;3799;47.184;8.538;2022-12-18T15:07:41;2.10;99.90
7516;DHT22;3799;47.184;8.538;2022-12-18T15:10:13;2.00;99.90
7516;DHT22;3799;47.184;8.538;2022-12-18T15:12:43;2.00;99.90
7516;DHT22;3799;47.184;8.538;2022-12-18T15:17:57;1.80;99.90
7516;DHT22;3799;47.184;8.538;2022-12-18T15:20:23;1.80;99.90
7516;DHT22;3799;47.184;8.538;2022-12-18T15:22:48;1.90;99.90
7516;DHT22;3799;47.184;8.538;2022-12-18T15:27:49;1.40;99.90
7516;DHT22;3799;47.184;8.538;2022-12-18T15:32:40;1.30;99.90
7516;DHT22;3799;47.184;8.538;2022-12-18T15:37:35;1.00;99.90
7516;DHT22;3799;47.184;8.538;2022-12-18T15:40:00;1.30;99.90
7516;DHT22;3799;47.184;8.538;2022-12-18T15:42:27;1.30;99.90
7516;DHT22;3799;47.184;8.538;2022-12-18T15:45:12;1.20;99.90
7516;DHT22;3799;47.184;8.538;2022-12-18T15:47:38;1.20;99.90
7516;DHT22;3799;47.184;8.538;2022-12-18T15:50:04;1.20;99.90
7516;DHT22;3799;47.184;8.538;2022-12-18T15:52:30;1.10;99.90
7516;DHT22;3799;47.184;8.538;2022-12-18T15:54:56;1.10;99.90
7516;DHT22;3799;47.184;8.538;2022-12-18T15:57:40;0.90;99.90
7516;DHT22;3799;47.184;8.538;2022-12-18T16:00:06;0.80;99.90
7516;DHT22;3799;47.184;8.538;2022-12-18T16:02:31;0.90;99.90
7516;DHT22;3799;47.184;8.538;2022-12-18T16:04:57;0.60;99.90
7516;DHT22;3799;47.184;8.538;2022-12-18T16:07:23;0.70;99.90
7516;DHT22;3799;47.184;8.538;2022-12-18T16:09:48;0.60;99.90
7516;DHT22;3799;47.184;8.538;2022-12-18T16:12:15;0.50;99.90
7516;DHT22;3799;47.184;8.538;2022-12-18T16:14:41;0.40;99.90
7516;DHT22;3799;47.184;8.538;2022-12-18T16:17:08;0.50;99.90
7516;DHT22;3799;47.184;8.538;2022-12-18T16:19:35;0.40;99.90
7516;DHT22;3799;47.184;8.538;2022-12-18T16:36:58;22.50;99.90
7516;DHT22;3799;47.184;8.538;2022-12-18T16:39:25;22.20;99.90
7516;DHT22;3799;47.184;8.538;2022-12-18T16:41:51;22.00;99.90
7516;DHT22;3799;47.184;8.538;2022-12-18T16:54:09;22.00;99.90
7516;DHT22;3799;47.184;8.538;2022-12-18T16:56:43;22.10;99.90
7516;DHT22;3799;47.184;8.538;2022-12-18T17:00:58;22.30;99.90
7516;DHT22;3799;47.184;8.538;2022-12-18T17:03:25;20.70;61.50
7516;DHT22;3799;47.184;8.538;2022-12-18T17:05:52;16.90;47.60
7516;DHT22;3799;47.184;8.538;2022-12-18T17:08:19;13.30;48.50
7516;DHT22;3799;47.184;8.538;2022-12-18T17:10:46;10.10;49.50
7516;DHT22;3799;47.184;8.538;2022-12-18T17:13:12;7.80;52.60
7516;DHT22;3799;47.184;8.538;2022-12-18T17:15:40;6.10;55.30
7516;DHT22;3799;47.184;8.538;2022-12-18T17:18:10;4.60;57.90
7516;DHT22;3799;47.184;8.538;2022-12-18T17:20:37;3.60;63.20
7516;DHT22;3799;47.184;8.538;2022-12-18T17:23:04;2.80;75.80
7516;DHT22;3799;47.184;8.538;2022-12-18T17:25:32;2.50;91.70
7516;DHT22;3799;47.184;8.538;2022-12-18T17:27:59;2.00;97.40
7516;DHT22;3799;47.184;8.538;2022-12-18T17:30:26;1.80;99.90
7516;DHT22;3799;47.184;8.538;2022-12-18T17:32:53;1.30;99.90
7516;DHT22;3799;47.184;8.538;2022-12-18T17:35:20;1.30;99.90
7516;DHT22;3799;47.184;8.538;2022-12-18T17:37:47;1.10;99.90
7516;DHT22;3799;47.184;8.538;2022-12-18T17:40:14;0.90;99.90
7516;DHT22;3799;47.184;8.538;2022-12-18T17:42:41;0.60;99.90
7516;DHT22;3799;47.184;8.538;2022-12-18T17:45:08;0.60;99.90
7516;DHT22;3799;47.184;8.538;2022-12-18T17:47:35;0.40;99.90
7516;DHT22;3799;47.184;8.538;2022-12-18T17:50:02;0.40;99.90
7516;DHT22;3799;47.184;8.538;2022-12-18T17:52:30;0.60;99.90
7516;DHT22;3799;47.184;8.538;2022-12-18T17:54:59;0.50;99.90
7516;DHT22;3799;47.184;8.538;2022-12-18T17:57:26;0.50;99.90
7516;DHT22;3799;47.184;8.538;2022-12-18T17:59:53;0.70;99.90
7516;DHT22;3799;47.184;8.538;2022-12-18T18:02:21;0.60;99.90
7516;DHT22;3799;47.184;8.538;2022-12-18T18:04:48;0.80;99.90
7516;DHT22;3799;47.184;8.538;2022-12-18T18:07:15;0.90;99.90
7516;DHT22;3799;47.184;8.538;2022-12-18T18:09:42;0.70;99.90
7516;DHT22;3799;47.184;8.538;2022-12-18T18:12:09;1.00;99.90
7516;DHT22;3799;47.184;8.538;2022-12-18T18:14:54;0.70;99.90
7516;DHT22;3799;47.184;8.538;2022-12-18T18:17:21;0.60;99.90
7516;DHT22;3799;47.184;8.538;2022-12-18T18:19:54;0.70;99.90
7516;DHT22;3799;47.184;8.538;2022-12-18T18:22:21;0.50;99.90
7516;DHT22;3799;47.184;8.538;2022-12-18T18:24:50;0.60;99.90
7516;DHT22;3799;47.184;8.538;2022-12-18T18:27:17;0.60;99.90
7516;DHT22;3799;47.184;8.538;2022-12-18T18:29:47;0.40;99.90
7516;DHT22;3799;47.184;8.538;2022-12-18T18:32:14;0.60;99.90
7516;DHT22;3799;47.184;8.538;2022-12-18T18:34:42;0.80;99.90
7516;DHT22;3799;47.184;8.538;2022-12-18T18:37:11;0.50;99.90
7516;DHT22;3799;47.184;8.538;2022-12-18T18:39:38;0.60;99.90
7516;DHT22;3799;47.184;8.538;2022-12-18T18:42:05;0.60;99.90